createdAt,value
2022-10-12T00:00:11.057Z,100925.45
2022-10-12T00:01:11.062Z,100924.75
2022-10-12T00:02:11.109Z,100926.98
2022-10-12T00:03:13.146Z,100924.16
2022-10-12T00:04:11.061Z,100924.52
2022-10-12T00:05:11.062Z,100925.93
2022-10-12T00:06:11.061Z,100924.11
2022-10-12T00:07:11.063Z,100920.68
2022-10-12T00:08:11.061Z,100920.37
2022-10-12T00:09:11.060Z,100924.62
2022-10-12T00:10:11.063Z,100921.52
2022-10-12T00:11:15.062Z,100920.16
2022-10-12T00:12:11.060Z,100922.47
2022-10-12T00:13:11.063Z,100919.29
2022-10-12T00:14:11.070Z,100918.72
2022-10-12T00:15:11.060Z,100917.48
2022-10-12T00:16:11.061Z,100918.32
2022-10-12T00:17:11.072Z,100915.56
2022-10-12T00:18:11.060Z,100916.22
2022-10-12T00:19:12.065Z,100915.88
2022-10-12T00:20:11.069Z,100914.69
2022-10-12T00:21:15.081Z,100916.39
2022-10-12T00:22:11.056Z,100919.99
2022-10-12T00:23:11.058Z,100920.32
2022-10-12T00:24:11.062Z,100922.48
2022-10-12T00:25:11.058Z,100920.20
2022-10-12T00:26:17.058Z,100919.50
2022-10-12T00:27:11.066Z,100918.16
2022-10-12T00:28:11.127Z,100919.24
2022-10-12T00:29:11.054Z,100920.20
2022-10-12T00:30:11.061Z,100919.28
2022-10-12T00:31:14.063Z,100920.71
2022-10-12T00:32:11.069Z,100917.84
2022-10-12T00:33:11.061Z,100917.65
2022-10-12T00:34:11.060Z,100918.36
2022-10-12T00:35:11.060Z,100918.46
2022-10-12T00:36:17.061Z,100919.23
2022-10-12T00:37:11.060Z,100917.16
2022-10-12T00:38:11.058Z,100918.00
2022-10-12T00:39:11.060Z,100917.33
2022-10-12T00:40:11.067Z,100913.22
2022-10-12T00:41:11.061Z,100915.47
2022-10-12T00:42:12.064Z,100914.54
2022-10-12T00:43:19.068Z,100910.09
2022-10-12T00:44:19.061Z,100911.36
2022-10-12T00:45:11.059Z,100907.62
2022-10-12T00:46:21.063Z,100904.88
2022-10-12T00:47:19.063Z,100905.11
2022-10-12T00:48:11.067Z,100897.39
2022-10-12T00:49:19.060Z,100900.27
2022-10-12T00:50:17.064Z,100897.43
2022-10-12T00:51:11.060Z,100899.38
2022-10-12T00:52:11.076Z,100893.79
2022-10-12T00:53:16.058Z,100895.90
2022-10-12T00:54:13.060Z,100892.41
2022-10-12T00:55:12.072Z,100891.22
2022-10-12T00:56:17.059Z,100892.12
2022-10-12T00:57:13.064Z,100893.69
2022-10-12T00:58:11.063Z,100895.46
2022-10-12T00:59:14.062Z,100892.03
2022-10-12T01:00:11.083Z,100895.03
2022-10-12T01:01:11.129Z,100894.34
2022-10-12T01:02:11.062Z,100891.72
2022-10-12T01:03:13.060Z,100893.31
2022-10-12T01:04:11.063Z,100891.36
2022-10-12T01:05:11.068Z,100890.27
2022-10-12T01:06:11.065Z,100887.49
2022-10-12T01:07:11.058Z,100888.81
2022-10-12T01:08:11.061Z,100887.25
2022-10-12T01:09:11.064Z,100887.51
2022-10-12T01:10:11.062Z,100886.40
2022-10-12T01:11:11.061Z,100884.23
2022-10-12T01:12:11.063Z,100883.54
2022-10-12T01:13:11.062Z,100883.62
2022-10-12T01:14:11.062Z,100886.55
2022-10-12T01:15:11.072Z,100880.11
2022-10-12T01:16:19.062Z,100880.46
2022-10-12T01:17:21.062Z,100878.84
2022-10-12T01:18:19.066Z,100881.11
2022-10-12T01:19:19.065Z,100879.97
2022-10-12T01:20:19.061Z,100875.88
2022-10-12T01:21:19.054Z,100875.46
2022-10-12T01:22:16.062Z,100869.50
2022-10-12T01:23:21.076Z,100858.79
2022-10-12T01:24:19.059Z,100837.59
2022-10-12T01:25:19.057Z,100833.46
2022-10-12T01:26:19.056Z,100838.58
2022-10-12T01:27:19.059Z,100847.99
2022-10-12T01:28:19.141Z,100841.04
2022-10-12T01:29:19.058Z,100839.26
2022-10-12T01:30:19.057Z,100840.98
2022-10-12T01:31:19.054Z,100836.06
2022-10-12T01:32:19.059Z,100837.56
2022-10-12T01:33:21.066Z,100838.02
2022-10-12T01:34:21.059Z,100836.56
2022-10-12T01:35:19.059Z,100839.78
2022-10-12T01:36:17.057Z,100838.25
2022-10-12T01:37:17.060Z,100841.92
2022-10-12T01:38:19.066Z,100840.63
2022-10-12T01:39:19.059Z,100840.38
2022-10-12T01:40:15.059Z,100835.31
2022-10-12T01:41:19.063Z,100837.79
2022-10-12T01:42:15.062Z,100837.63
2022-10-12T01:43:11.067Z,100835.27
2022-10-12T01:44:11.064Z,100834.38
2022-10-12T01:45:11.055Z,100835.05
2022-10-12T01:46:21.069Z,100831.60
2022-10-12T01:47:11.068Z,100830.48
2022-10-12T01:48:11.061Z,100831.52
2022-10-12T01:49:11.055Z,100832.09
2022-10-12T01:50:12.066Z,100827.89
2022-10-12T01:51:11.060Z,100826.44
2022-10-12T01:52:19.056Z,100822.86
2022-10-12T01:53:19.060Z,100825.25
2022-10-12T01:54:21.067Z,100823.27
2022-10-12T01:55:21.061Z,100822.70
2022-10-12T01:56:19.063Z,100820.82
2022-10-12T01:57:17.064Z,100819.16
2022-10-12T01:58:19.061Z,100823.62
2022-10-12T01:59:21.062Z,100823.57
2022-10-12T02:00:12.069Z,100820.23
2022-10-12T02:01:21.135Z,100819.90
2022-10-12T02:02:19.059Z,100817.66
2022-10-12T02:03:18.079Z,100814.57
2022-10-12T02:04:19.060Z,100813.50
2022-10-12T02:05:19.072Z,100810.70
2022-10-12T02:06:16.061Z,100810.53
2022-10-12T02:07:19.066Z,100807.35
2022-10-12T02:08:19.063Z,100806.79
2022-10-12T02:09:19.069Z,100806.32
2022-10-12T02:10:16.062Z,100807.70
2022-10-12T02:11:14.059Z,100810.12
2022-10-12T02:12:16.061Z,100813.59
2022-10-12T02:13:11.069Z,100811.62
2022-10-12T02:14:16.060Z,100811.02
2022-10-12T02:15:11.061Z,100807.62
2022-10-12T02:16:14.066Z,100808.00
2022-10-12T02:17:13.064Z,100809.17
2022-10-12T02:18:12.061Z,100809.62
2022-10-12T02:19:13.070Z,100804.87
2022-10-12T02:20:13.064Z,100799.89
2022-10-12T02:21:12.059Z,100801.55
2022-10-12T02:22:11.061Z,100801.71
2022-10-12T02:23:11.060Z,100795.29
2022-10-12T02:24:11.058Z,100794.36
2022-10-12T02:25:12.059Z,100790.39
2022-10-12T02:26:11.058Z,100790.09
2022-10-12T02:27:11.060Z,100784.14
2022-10-12T02:28:15.135Z,100784.98
2022-10-12T02:29:13.061Z,100779.13
2022-10-12T02:30:11.059Z,100779.94
2022-10-12T02:31:23.055Z,100781.54
2022-10-12T02:32:19.060Z,100779.31
2022-10-12T02:33:19.069Z,100779.08
2022-10-12T02:34:21.058Z,100777.57
2022-10-12T02:35:17.058Z,100774.43
2022-10-12T02:36:21.060Z,100776.77
2022-10-12T02:37:23.057Z,100772.68
2022-10-12T02:38:19.062Z,100772.08
2022-10-12T02:39:19.060Z,100766.24
2022-10-12T02:40:19.060Z,100769.32
2022-10-12T02:41:15.058Z,100768.73
2022-10-12T02:42:16.061Z,100767.50
2022-10-12T02:43:17.059Z,100765.42
2022-10-12T02:44:12.062Z,100761.21
2022-10-12T02:45:11.057Z,100764.31
2022-10-12T02:46:11.064Z,100764.91
2022-10-12T02:47:11.060Z,100766.77
2022-10-12T02:48:12.060Z,100760.91
2022-10-12T02:49:11.059Z,100765.05
2022-10-12T02:50:11.061Z,100762.74
2022-10-12T02:51:11.059Z,100760.62
2022-10-12T02:52:11.060Z,100759.57
2022-10-12T02:53:11.067Z,100757.06
2022-10-12T02:54:11.059Z,100754.91
2022-10-12T02:55:11.061Z,100755.45
2022-10-12T02:56:14.061Z,100752.05
2022-10-12T02:57:11.060Z,100750.41
2022-10-12T02:58:11.060Z,100744.85
2022-10-12T02:59:11.069Z,100747.81
2022-10-12T03:00:11.060Z,100747.59
2022-10-12T03:01:11.141Z,100746.93
2022-10-12T03:02:11.068Z,100744.10
2022-10-12T03:03:11.058Z,100743.79
2022-10-12T03:04:11.063Z,100737.93
2022-10-12T03:05:11.070Z,100735.64
2022-10-12T03:06:11.061Z,100733.32
2022-10-12T03:07:11.065Z,100733.80
2022-10-12T03:08:11.069Z,100736.18
2022-10-12T03:09:11.060Z,100730.64
2022-10-12T03:10:11.064Z,100730.54
2022-10-12T03:11:13.071Z,100725.20
2022-10-12T03:12:11.064Z,100722.40
2022-10-12T03:13:11.058Z,100725.87
2022-10-12T03:14:11.069Z,100719.86
2022-10-12T03:15:11.062Z,100722.22
2022-10-12T03:16:11.061Z,100721.97
2022-10-12T03:17:11.060Z,100726.86
2022-10-12T03:18:11.065Z,100723.47
2022-10-12T03:19:11.060Z,100726.14
2022-10-12T03:20:11.065Z,100722.54
2022-10-12T03:21:11.064Z,100724.77
2022-10-12T03:22:11.059Z,100728.86
2022-10-12T03:23:11.060Z,100727.99
2022-10-12T03:24:11.069Z,100728.85
2022-10-12T03:25:11.061Z,100726.69
2022-10-12T03:26:11.053Z,100728.98
2022-10-12T03:27:11.061Z,100725.70
2022-10-12T03:28:11.155Z,100725.59
2022-10-12T03:29:11.059Z,100717.75
2022-10-12T03:30:11.058Z,100715.90
2022-10-12T03:31:11.059Z,100718.30
2022-10-12T03:32:11.058Z,100714.85
2022-10-12T03:33:11.059Z,100715.29
2022-10-12T03:34:11.065Z,100711.75
2022-10-12T03:35:11.060Z,100712.92
2022-10-12T03:36:11.056Z,100715.39
2022-10-12T03:37:11.061Z,100713.33
2022-10-12T03:38:11.058Z,100713.71
2022-10-12T03:39:11.057Z,100715.52
2022-10-12T03:40:11.062Z,100714.94
2022-10-12T03:41:11.059Z,100715.58
2022-10-12T03:42:11.058Z,100714.76
2022-10-12T03:43:11.058Z,100712.69
2022-10-12T03:44:11.060Z,100715.40
2022-10-12T03:45:11.060Z,100717.47
2022-10-12T03:46:11.067Z,100715.26
2022-10-12T03:47:11.067Z,100711.71
2022-10-12T03:48:11.057Z,100717.85
2022-10-12T03:49:11.060Z,100718.83
2022-10-12T03:50:11.067Z,100718.92
2022-10-12T03:51:11.058Z,100723.24
2022-10-12T03:52:11.062Z,100723.18
2022-10-12T03:53:11.067Z,100727.34
2022-10-12T03:54:11.062Z,100725.22
2022-10-12T03:55:11.057Z,100731.85
2022-10-12T03:56:11.062Z,100728.58
2022-10-12T03:57:11.062Z,100728.66
2022-10-12T03:58:11.056Z,100728.14
2022-10-12T03:59:11.064Z,100728.93
2022-10-12T04:00:11.078Z,100727.81
2022-10-12T04:01:11.108Z,100726.11
2022-10-12T04:02:15.855Z,100722.69
2022-10-12T04:03:13.844Z,100725.36
2022-10-12T04:04:11.059Z,100723.00
2022-10-12T04:05:11.065Z,100721.85
2022-10-12T04:06:11.069Z,100723.55
2022-10-12T04:07:11.063Z,100722.52
2022-10-12T04:08:11.064Z,100721.40
2022-10-12T04:09:11.064Z,100720.25
2022-10-12T04:10:11.062Z,100725.61
2022-10-12T04:11:11.061Z,100718.65
2022-10-12T04:12:11.063Z,100719.54
2022-10-12T04:13:11.064Z,100715.30
2022-10-12T04:14:11.058Z,100720.52
2022-10-12T04:15:11.196Z,100717.63
2022-10-12T04:16:11.061Z,100720.03
2022-10-12T04:17:11.057Z,100720.80
2022-10-12T04:18:11.063Z,100713.73
2022-10-12T04:19:14.063Z,100714.80
2022-10-12T04:20:11.067Z,100713.85
2022-10-12T04:21:13.058Z,100715.05
2022-10-12T04:22:11.060Z,100713.97
2022-10-12T04:23:11.058Z,100714.89
2022-10-12T04:24:11.058Z,100712.93
2022-10-12T04:25:11.066Z,100713.06
2022-10-12T04:26:11.056Z,100709.28
2022-10-12T04:27:11.060Z,100704.86
2022-10-12T04:28:11.089Z,100702.67
2022-10-12T04:29:11.057Z,100700.81
2022-10-12T04:30:11.060Z,100697.86
2022-10-12T04:31:11.065Z,100700.56
2022-10-12T04:32:12.701Z,100699.72
2022-10-12T04:33:11.062Z,100700.02
2022-10-12T04:34:11.061Z,100698.83
2022-10-12T04:35:11.059Z,100700.98
2022-10-12T04:36:11.058Z,100697.77
2022-10-12T04:37:11.059Z,100697.17
2022-10-12T04:38:11.059Z,100698.89
2022-10-12T04:39:11.059Z,100696.00
2022-10-12T04:40:11.061Z,100697.45
2022-10-12T04:41:11.060Z,100694.55
2022-10-12T04:42:11.058Z,100694.82
2022-10-12T04:43:11.059Z,100695.37
2022-10-12T04:44:11.061Z,100693.57
2022-10-12T04:45:11.061Z,100690.07
2022-10-12T04:46:11.061Z,100689.58
2022-10-12T04:47:11.062Z,100688.66
2022-10-12T04:48:11.061Z,100689.59
2022-10-12T04:49:11.060Z,100688.36
2022-10-12T04:50:11.061Z,100686.20
2022-10-12T04:51:11.064Z,100687.76
2022-10-12T04:52:11.059Z,100689.84
2022-10-12T04:53:11.062Z,100691.88
2022-10-12T04:54:11.061Z,100689.64
2022-10-12T04:55:11.059Z,100692.65
2022-10-12T04:56:11.062Z,100693.32
2022-10-12T04:57:11.059Z,100690.48
2022-10-12T04:58:11.061Z,100693.94
2022-10-12T04:59:11.061Z,100694.18
2022-10-12T05:00:11.060Z,100696.47
2022-10-12T05:01:11.140Z,100693.57
2022-10-12T05:02:11.068Z,100694.86
2022-10-12T05:03:11.062Z,100692.39
2022-10-12T05:04:11.063Z,100693.12
2022-10-12T05:05:11.070Z,100691.82
2022-10-12T05:06:11.065Z,100692.64
2022-10-12T05:07:11.064Z,100689.88
2022-10-12T05:08:11.070Z,100688.46
2022-10-12T05:09:14.489Z,100689.58
2022-10-12T05:10:13.803Z,100686.81
2022-10-12T05:11:11.061Z,100684.56
2022-10-12T05:12:11.062Z,100684.94
2022-10-12T05:13:11.060Z,100684.38
2022-10-12T05:14:11.062Z,100684.54
2022-10-12T05:15:11.075Z,100687.48
2022-10-12T05:16:11.059Z,100685.29
2022-10-12T05:17:11.066Z,100688.14
2022-10-12T05:18:11.076Z,100688.42
2022-10-12T05:19:11.062Z,100685.95
2022-10-12T05:20:11.059Z,100686.76
2022-10-12T05:21:11.060Z,100685.48
2022-10-12T05:22:11.058Z,100682.71
2022-10-12T05:23:13.054Z,100685.64
2022-10-12T05:24:11.060Z,100680.61
2022-10-12T05:25:11.059Z,100678.24
2022-10-12T05:26:11.056Z,100678.61
2022-10-12T05:27:11.066Z,100674.16
2022-10-12T05:28:11.098Z,100676.46
2022-10-12T05:29:11.056Z,100677.12
2022-10-12T05:30:11.057Z,100679.04
2022-10-12T05:31:11.066Z,100673.51
2022-10-12T05:32:11.057Z,100676.70
2022-10-12T05:33:11.057Z,100675.72
2022-10-12T05:34:11.065Z,100673.98
2022-10-12T05:35:11.059Z,100675.46
2022-10-12T05:36:11.056Z,100674.50
2022-10-12T05:37:11.060Z,100671.13
2022-10-12T05:38:11.066Z,100666.62
2022-10-12T05:39:11.057Z,100661.93
2022-10-12T05:40:11.059Z,100659.13
2022-10-12T05:41:11.061Z,100660.95
2022-10-12T05:42:11.058Z,100656.87
2022-10-12T05:43:11.074Z,100660.01
2022-10-12T05:44:11.062Z,100657.62
2022-10-12T05:45:11.064Z,100656.68
2022-10-12T05:46:14.223Z,100653.21
2022-10-12T05:47:11.067Z,100653.96
2022-10-12T05:48:11.061Z,100651.38
2022-10-12T05:49:11.060Z,100651.15
2022-10-12T05:50:11.062Z,100653.39
2022-10-12T05:51:11.060Z,100656.88
2022-10-12T05:52:11.063Z,100653.88
2022-10-12T05:53:11.068Z,100655.50
2022-10-12T05:54:11.058Z,100661.51
2022-10-12T05:55:11.086Z,100661.49
2022-10-12T05:56:11.068Z,100661.71
2022-10-12T05:57:11.061Z,100661.54
2022-10-12T05:58:11.057Z,100661.14
2022-10-12T05:59:11.063Z,100659.98
2022-10-12T06:00:11.066Z,100664.35
2022-10-12T06:01:12.070Z,100661.99
2022-10-12T06:02:14.151Z,100660.96
2022-10-12T06:03:11.061Z,100660.21
2022-10-12T06:04:11.058Z,100660.02
2022-10-12T06:05:11.059Z,100661.94
2022-10-12T06:06:11.068Z,100661.88
2022-10-12T06:07:11.060Z,100663.31
2022-10-12T06:08:11.064Z,100665.22
2022-10-12T06:09:11.069Z,100664.30
2022-10-12T06:10:11.067Z,100665.19
2022-10-12T06:11:11.066Z,100668.36
2022-10-12T06:12:11.068Z,100667.09
2022-10-12T06:13:11.063Z,100667.08
2022-10-12T06:14:11.060Z,100669.05
2022-10-12T06:15:11.072Z,100667.42
2022-10-12T06:16:11.062Z,100667.12
2022-10-12T06:17:11.061Z,100661.58
2022-10-12T06:18:11.060Z,100656.47
2022-10-12T06:19:12.065Z,100657.07
2022-10-12T06:20:11.062Z,100655.95
2022-10-12T06:21:33.394Z,100652.90
2022-10-12T06:22:13.103Z,100653.94
2022-10-12T06:23:11.056Z,100654.07
2022-10-12T06:24:11.057Z,100651.88
2022-10-12T06:25:11.068Z,100653.68
2022-10-12T06:26:11.059Z,100651.25
2022-10-12T06:27:11.054Z,100648.98
2022-10-12T06:28:11.155Z,100648.71
2022-10-12T06:29:11.059Z,100645.67
2022-10-12T06:30:11.056Z,100643.54
2022-10-12T06:31:11.062Z,100642.65
2022-10-12T06:32:11.060Z,100639.12
2022-10-12T06:33:11.057Z,100637.22
2022-10-12T06:34:11.060Z,100638.77
2022-10-12T06:35:11.067Z,100638.36
2022-10-12T06:36:11.057Z,100636.41
2022-10-12T06:37:25.387Z,100635.56
2022-10-12T06:38:13.085Z,100635.25
2022-10-12T06:39:11.060Z,100635.53
2022-10-12T06:40:11.056Z,100634.59
2022-10-12T06:41:11.063Z,100631.42
2022-10-12T06:42:11.063Z,100630.29
2022-10-12T06:43:11.056Z,100631.24
2022-10-12T06:44:11.098Z,100630.20
2022-10-12T06:45:11.059Z,100628.07
2022-10-12T06:46:11.058Z,100630.50
2022-10-12T06:47:11.059Z,100629.48
2022-10-12T06:48:13.840Z,100627.34
2022-10-12T06:49:13.080Z,100627.02
2022-10-12T06:50:11.059Z,100624.05
2022-10-12T06:51:11.067Z,100621.47
2022-10-12T06:52:11.060Z,100619.38
2022-10-12T06:53:11.065Z,100617.11
2022-10-12T06:54:11.070Z,100612.19
2022-10-12T06:55:11.064Z,100613.43
2022-10-12T06:56:11.056Z,100611.80
2022-10-12T06:57:11.069Z,100613.52
2022-10-12T06:58:11.062Z,100614.54
2022-10-12T06:59:11.060Z,100615.48
2022-10-12T07:00:11.061Z,100611.95
2022-10-12T07:01:11.210Z,100610.48
2022-10-12T07:02:13.057Z,100611.49
2022-10-12T07:03:12.065Z,100605.00
2022-10-12T07:04:11.063Z,100604.59
2022-10-12T07:05:11.058Z,100600.30
2022-10-12T07:06:14.064Z,100599.05
2022-10-12T07:07:11.062Z,100597.56
2022-10-12T07:08:11.063Z,100594.86
2022-10-12T07:09:11.089Z,100587.56
2022-10-12T07:10:11.064Z,100588.29
2022-10-12T07:11:11.061Z,100585.69
2022-10-12T07:12:11.062Z,100583.25
2022-10-12T07:13:11.064Z,100583.78
2022-10-12T07:14:11.120Z,100579.97
2022-10-12T07:15:11.061Z,100581.22
2022-10-12T07:16:11.064Z,100584.12
2022-10-12T07:17:11.061Z,100579.85
2022-10-12T07:18:11.064Z,100583.23
2022-10-12T07:19:11.073Z,100585.82
2022-10-12T07:20:11.061Z,100578.37
2022-10-12T07:21:11.059Z,100578.00
2022-10-12T07:22:11.058Z,100574.39
2022-10-12T07:23:11.059Z,100570.45
2022-10-12T07:24:13.109Z,100570.88
2022-10-12T07:25:11.061Z,100575.39
2022-10-12T07:26:11.056Z,100575.60
2022-10-12T07:27:11.063Z,100575.78
2022-10-12T07:28:11.115Z,100577.08
2022-10-12T07:29:11.055Z,100574.83
2022-10-12T07:30:11.056Z,100571.55
2022-10-12T07:31:11.064Z,100571.22
2022-10-12T07:32:11.057Z,100569.57
2022-10-12T07:33:11.057Z,100574.61
2022-10-12T07:34:11.059Z,100572.81
2022-10-12T07:35:11.059Z,100569.43
2022-10-12T07:36:15.865Z,100574.82
2022-10-12T07:37:13.186Z,100574.22
2022-10-12T07:38:11.057Z,100575.46
2022-10-12T07:39:11.060Z,100577.41
2022-10-12T07:40:11.066Z,100573.97
2022-10-12T07:41:11.058Z,100578.08
2022-10-12T07:42:13.462Z,100577.89
2022-10-12T07:43:16.182Z,100574.18
2022-10-12T07:44:11.060Z,100577.65
2022-10-12T07:45:11.059Z,100575.32
2022-10-12T07:46:11.060Z,100577.56
2022-10-12T07:47:11.067Z,100579.87
2022-10-12T07:48:11.059Z,100580.32
2022-10-12T07:49:11.062Z,100576.60
2022-10-12T07:50:11.067Z,100579.39
2022-10-12T07:51:11.061Z,100571.98
2022-10-12T07:52:11.064Z,100571.53
2022-10-12T07:53:11.067Z,100569.64
2022-10-12T07:54:11.063Z,100565.86
2022-10-12T07:55:11.056Z,100570.45
2022-10-12T07:56:11.065Z,100572.08
2022-10-12T07:57:11.061Z,100571.21
2022-10-12T07:58:11.059Z,100568.30
2022-10-12T07:59:11.059Z,100567.61
2022-10-12T08:00:11.062Z,100566.22
2022-10-12T08:01:11.062Z,100565.09
2022-10-12T08:02:13.129Z,100564.55
2022-10-12T08:03:11.069Z,100565.21
2022-10-12T08:04:11.060Z,100560.09
2022-10-12T08:05:11.060Z,100560.30
2022-10-12T08:06:17.069Z,100565.71
2022-10-12T08:07:11.062Z,100563.30
2022-10-12T08:08:11.060Z,100566.06
2022-10-12T08:09:11.063Z,100566.46
2022-10-12T08:10:11.070Z,100564.84
2022-10-12T08:11:11.065Z,100570.81
2022-10-12T08:12:11.058Z,100574.60
2022-10-12T08:13:11.069Z,100579.72
2022-10-12T08:14:17.067Z,100586.79
2022-10-12T08:15:11.062Z,100581.74
2022-10-12T08:16:12.062Z,100583.30
2022-10-12T08:17:11.064Z,100573.60
2022-10-12T08:18:11.062Z,100580.70
2022-10-12T08:19:11.062Z,100578.91
2022-10-12T08:20:11.073Z,100579.46
2022-10-12T08:21:11.157Z,100582.35
2022-10-12T08:22:11.061Z,100584.11
2022-10-12T08:23:11.061Z,100585.41
2022-10-12T08:24:11.062Z,100584.57
2022-10-12T08:25:11.055Z,100586.18
2022-10-12T08:26:11.061Z,100587.75
2022-10-12T08:27:11.058Z,100589.37
2022-10-12T08:28:11.117Z,100583.79
2022-10-12T08:29:11.058Z,100584.60
2022-10-12T08:30:11.063Z,100580.55
2022-10-12T08:31:12.074Z,100583.30
2022-10-12T08:32:11.059Z,100586.27
2022-10-12T08:33:11.060Z,100588.29
2022-10-12T08:34:11.058Z,100586.70
2022-10-12T08:35:11.061Z,100588.52
2022-10-12T08:36:11.061Z,100587.36
2022-10-12T08:37:11.058Z,100590.23
2022-10-12T08:38:13.062Z,100591.29
2022-10-12T08:39:11.062Z,100588.84
2022-10-12T08:40:16.058Z,100588.39
2022-10-12T08:41:19.057Z,100593.43
2022-10-12T08:42:19.061Z,100597.33
2022-10-12T08:43:19.064Z,100595.75
2022-10-12T08:44:19.073Z,100596.91
2022-10-12T08:45:19.063Z,100601.03
2022-10-12T08:46:11.060Z,100597.39
2022-10-12T08:47:21.062Z,100596.96
2022-10-12T08:48:20.069Z,100599.39
2022-10-12T08:49:19.063Z,100596.31
2022-10-12T08:50:16.060Z,100597.45
2022-10-12T08:51:14.370Z,100591.72
2022-10-12T08:52:19.066Z,100589.83
2022-10-12T08:53:18.071Z,100591.45
2022-10-12T08:54:14.062Z,100595.52
2022-10-12T08:55:22.057Z,100600.19
2022-10-12T08:56:11.058Z,100600.74
2022-10-12T08:57:18.075Z,100605.28
2022-10-12T08:58:18.078Z,100610.56
2022-10-12T08:59:16.062Z,100608.07
2022-10-12T09:00:15.065Z,100611.46
2022-10-12T09:01:19.168Z,100612.05
2022-10-12T09:02:19.125Z,100608.62
2022-10-12T09:03:19.098Z,100610.17
2022-10-12T09:04:19.084Z,100607.93
2022-10-12T09:05:16.100Z,100604.32
2022-10-12T09:06:18.065Z,100599.50
2022-10-12T09:07:18.090Z,100596.53
2022-10-12T09:08:19.064Z,100595.95
2022-10-12T09:09:19.062Z,100587.39
2022-10-12T09:10:19.066Z,100587.43
2022-10-12T09:11:19.061Z,100583.72
2022-10-12T09:12:19.081Z,100586.19
2022-10-12T09:13:22.064Z,100578.92
2022-10-12T09:14:15.077Z,100580.47
2022-10-12T09:15:21.061Z,100575.00
2022-10-12T09:16:19.063Z,100575.66
2022-10-12T09:17:19.085Z,100571.79
2022-10-12T09:18:19.069Z,100572.33
2022-10-12T09:19:18.061Z,100575.62
2022-10-12T09:20:19.060Z,100569.54
2022-10-12T09:21:18.056Z,100573.39
2022-10-12T09:22:19.065Z,100571.74
2022-10-12T09:23:19.059Z,100569.98
2022-10-12T09:24:18.059Z,100570.27
2022-10-12T09:25:14.056Z,100561.00
2022-10-12T09:26:18.058Z,100561.44
2022-10-12T09:27:15.062Z,100557.34
2022-10-12T09:28:19.068Z,100561.56
2022-10-12T09:29:22.056Z,100568.19
2022-10-12T09:30:17.054Z,100572.08
2022-10-12T09:31:19.059Z,100577.50
2022-10-12T09:32:22.068Z,100579.66
2022-10-12T09:33:22.060Z,100581.37
2022-10-12T09:34:13.531Z,100579.74
2022-10-12T09:35:16.669Z,100579.41
2022-10-12T09:36:14.057Z,100577.65
2022-10-12T09:37:18.059Z,100575.18
2022-10-12T09:38:12.061Z,100576.03
2022-10-12T09:39:19.061Z,100569.66
2022-10-12T09:40:22.062Z,100561.73
2022-10-12T09:41:19.066Z,100560.62
2022-10-12T09:42:11.067Z,100565.45
2022-10-12T09:43:11.061Z,100565.18
2022-10-12T09:44:16.061Z,100565.88
2022-10-12T09:45:19.066Z,100556.49
2022-10-12T09:46:14.060Z,100559.90
2022-10-12T09:47:19.060Z,100558.31
2022-10-12T09:48:19.061Z,100558.00
2022-10-12T09:49:11.059Z,100551.88
2022-10-12T09:50:11.062Z,100555.95
2022-10-12T09:51:11.060Z,100550.14
2022-10-12T09:52:11.059Z,100552.86
2022-10-12T09:53:19.062Z,100554.55
2022-10-12T09:54:19.058Z,100553.76
2022-10-12T09:55:22.108Z,100554.03
2022-10-12T09:56:14.640Z,100551.72
2022-10-12T09:57:11.066Z,100550.68
2022-10-12T09:58:19.059Z,100553.38
2022-10-12T09:59:19.058Z,100549.30
2022-10-12T10:00:19.522Z,100544.62
2022-10-12T10:01:22.106Z,100542.30
2022-10-12T10:02:16.080Z,100543.14
2022-10-12T10:03:19.061Z,100539.62
2022-10-12T10:04:22.060Z,100541.18
2022-10-12T10:05:19.062Z,100535.27
2022-10-12T10:06:11.062Z,100531.62
2022-10-12T10:07:19.063Z,100532.52
2022-10-12T10:08:18.063Z,100530.59
2022-10-12T10:09:19.063Z,100531.76
2022-10-12T10:10:23.850Z,100532.54
2022-10-12T10:11:17.087Z,100535.44
2022-10-12T10:12:18.065Z,100528.07
2022-10-12T10:13:15.065Z,100530.88
2022-10-12T10:14:15.063Z,100533.74
2022-10-12T10:15:19.063Z,100530.84
2022-10-12T10:16:11.064Z,100536.54
2022-10-12T10:17:14.064Z,100536.53
2022-10-12T10:18:19.059Z,100541.58
2022-10-12T10:19:16.096Z,100538.36
2022-10-12T10:20:19.448Z,100534.28
2022-10-12T10:21:11.091Z,100535.52
2022-10-12T10:22:13.058Z,100535.27
2022-10-12T10:23:19.060Z,100536.30
2022-10-12T10:24:19.060Z,100531.70
2022-10-12T10:25:19.060Z,100535.80
2022-10-12T10:26:12.143Z,100532.44
2022-10-12T10:27:19.054Z,100533.81
2022-10-12T10:28:19.089Z,100529.83
2022-10-12T10:29:22.069Z,100527.38
2022-10-12T10:30:29.920Z,100533.13
2022-10-12T10:31:21.085Z,100531.76
2022-10-12T10:32:20.057Z,100533.62
2022-10-12T10:33:16.063Z,100536.74
2022-10-12T10:34:21.063Z,100531.57
2022-10-12T10:35:18.061Z,100530.54
2022-10-12T10:36:19.061Z,100528.87
2022-10-12T10:37:19.063Z,100527.71
2022-10-12T10:38:15.059Z,100521.73
2022-10-12T10:39:19.058Z,100521.05
2022-10-12T10:40:19.311Z,100518.39
2022-10-12T10:41:15.081Z,100520.16
2022-10-12T10:42:18.060Z,100518.69
2022-10-12T10:43:22.061Z,100522.27
2022-10-12T10:44:21.872Z,100526.91
2022-10-12T10:45:20.070Z,100524.15
2022-10-12T10:46:11.062Z,100533.17
2022-10-12T10:47:11.070Z,100533.15
2022-10-12T10:48:13.062Z,100542.36
2022-10-12T10:49:15.069Z,100539.71
2022-10-12T10:50:19.482Z,100546.69
2022-10-12T10:51:11.060Z,100549.47
2022-10-12T10:52:19.062Z,100543.53
2022-10-12T10:53:17.070Z,100543.75
2022-10-12T10:54:19.063Z,100549.01
2022-10-12T10:55:19.061Z,100545.45
2022-10-12T10:56:14.065Z,100542.36
2022-10-12T10:57:17.072Z,100552.61
2022-10-12T10:58:22.064Z,100545.88
2022-10-12T10:59:19.062Z,100549.16
2022-10-12T11:01:19.173Z,100537.24
2022-10-12T11:02:25.072Z,100538.68
2022-10-12T11:03:22.073Z,100531.53
2022-10-12T11:04:19.065Z,100526.91
2022-10-12T11:05:22.063Z,100533.29
2022-10-12T11:06:22.066Z,100527.31
2022-10-12T11:07:19.064Z,100525.33
2022-10-12T11:08:19.072Z,100522.84
2022-10-12T11:09:19.065Z,100517.66
2022-10-12T11:10:19.062Z,100514.66
2022-10-12T11:11:16.062Z,100514.41
2022-10-12T11:12:17.069Z,100507.57
2022-10-12T11:13:22.072Z,100511.87
2022-10-12T11:14:17.078Z,100507.59
2022-10-12T11:15:22.067Z,100498.79
2022-10-12T11:16:19.065Z,100494.11
2022-10-12T11:17:18.063Z,100494.83
2022-10-12T11:18:21.067Z,100484.84
2022-10-12T11:19:19.074Z,100494.06
2022-10-12T11:20:22.066Z,100498.58
2022-10-12T11:21:19.059Z,100496.80
2022-10-12T11:22:21.056Z,100494.98
2022-10-12T11:23:21.059Z,100491.95
2022-10-12T11:24:18.066Z,100488.59
2022-10-12T11:25:19.059Z,100487.76